Time;durP1;ratioP1;P1;durP2;ratioP2;P2;SDS_P1;SDS_P2;PMS_P1;PMS_P2;Temp;Humidity;BMP_temperature;BMP_pressure;BME280_temperature;BME280_humidity;BME280_pressure;Samples;Min_cycle;Max_cycle;Signal;HPM_P1;HPM_P2
2022/04/18 00:02:17;;;;;;;0.00;0.00;;;;;;;;;;6151566;23;20459;-48
2022/04/18 00:04:42;;;;;;;0.00;0.00;;;;;;;;;;6125363;23;20072;-50
2022/04/18 00:07:08;;;;;;;0.00;0.00;;;;;;;;;;6151945;23;20001;-46
2022/04/18 00:09:33;;;;;;;0.00;0.00;;;;;;;;;;6151857;23;20005;-52
2022/04/18 00:11:58;;;;;;;0.00;0.00;;;;;;;;;;6152367;23;20002;-50
2022/04/18 00:14:24;;;;;;;0.00;0.00;;;;;;;;;;6152082;23;20001;-48
2022/04/18 00:16:49;;;;;;;0.00;0.00;;;;;;;;;;6151172;23;20013;-47
2022/04/18 00:19:14;;;;;;;0.15;0.15;;;;;;;;;;6125942;23;20012;-47
2022/04/18 00:21:40;;;;;;;0.45;0.32;;;;;;;;;;6151820;23;20052;-45
2022/04/18 00:24:05;;;;;;;0.00;0.00;;;;;;;;;;6151663;23;20005;-45
2022/04/18 00:26:31;;;;;;;0.00;0.00;;;;;;;;;;6152117;23;20052;-49
2022/04/18 00:28:56;;;;;;;0.00;0.00;;;;;;;;;;6151753;23;20045;-45
2022/04/18 00:31:21;;;;;;;2.08;2.08;;;;;;;;;;6151944;23;20002;-50
2022/04/18 00:33:46;;;;;;;3.83;0.70;;;;;;;;;;6151524;23;20380;-49
2022/04/18 00:36:12;;;;;;;0.43;0.43;;;;;;;;;;6151879;23;20005;-48
2022/04/18 00:38:37;;;;;;;0.00;0.00;;;;;;;;;;6151237;23;20006;-49
2022/04/18 00:41:02;;;;;;;0.00;0.00;;;;;;;;;;6151587;23;20002;-49
2022/04/18 00:43:43;;;;;;;0.00;0.00;;;;;;;;;;6151805;23;20056;-51
2022/04/18 00:46:08;;;;;;;0.00;0.00;;;;;;;;;;6151088;23;20007;-53
2022/04/18 00:48:34;;;;;;;0.00;0.00;;;;;;;;;;6151217;23;20037;-46
2022/04/18 00:50:59;;;;;;;0.00;0.00;;;;;;;;;;6151864;23;20009;-45
2022/04/18 00:53:25;;;;;;;0.00;0.00;;;;;;;;;;6151350;23;20006;-49
2022/04/18 00:55:50;;;;;;;1.00;1.00;;;;;;;;;;6151428;23;20032;-49
2022/04/18 00:58:15;;;;;;;0.00;0.00;;;;;;;;;;6152408;23;20482;-50
2022/04/18 01:00:41;;;;;;;0.00;0.00;;;;;;;;;;6151510;23;20002;-50
2022/04/18 01:03:06;;;;;;;0.00;0.00;;;;;;;;;;6152170;23;20425;-46
2022/04/18 01:05:32;;;;;;;0.00;0.00;;;;;;;;;;6151909;23;19998;-48
2022/04/18 01:07:57;;;;;;;0.00;0.00;;;;;;;;;;6152432;23;20084;-49
2022/04/18 01:10:22;;;;;;;0.00;0.00;;;;;;;;;;6152433;23;19997;-52
2022/04/18 01:12:47;;;;;;;0.00;0.00;;;;;;;;;;6152092;23;20420;-50
2022/04/18 01:15:13;;;;;;;0.00;0.00;;;;;;;;;;6151724;23;20004;-46
2022/04/18 01:17:38;;;;;;;0.00;0.00;;;;;;;;;;6152059;23;19997;-50
2022/04/18 01:20:03;;;;;;;0.00;0.00;;;;;;;;;;6152095;23;20001;-52
2022/04/18 01:22:29;;;;;;;0.00;0.00;;;;;;;;;;6152480;23;20009;-50
2022/04/18 01:30:26;;;;;;;0.00;0.00;;;;;;;;;;6152395;23;20505;-51
2022/04/18 01:32:51;;;;;;;0.00;0.00;;;;;;;;;;6151438;23;20033;-49
2022/04/18 01:35:16;;;;;;;0.00;0.00;;;;;;;;;;6151815;23;19997;-50
2022/04/18 01:37:42;;;;;;;0.13;0.13;;;;;;;;;;6151345;23;19998;-51
2022/04/18 01:40:07;;;;;;;0.40;0.40;;;;;;;;;;6152115;23;20052;-47
2022/04/18 01:42:32;;;;;;;0.00;0.00;;;;;;;;;;6151450;23;20009;-51
2022/04/18 01:45:00;;;;;;;0.00;0.00;;;;;;;;;;6151584;23;20004;-50
2022/04/18 01:47:27;;;;;;;0.00;0.00;;;;;;;;;;6151533;23;20004;-48
2022/04/18 01:49:52;;;;;;;0.00;0.00;;;;;;;;;;6151543;23;20072;-50
2022/04/18 01:52:17;;;;;;;0.00;0.00;;;;;;;;;;6151238;23;20463;-47
2022/04/18 01:54:43;;;;;;;0.00;0.00;;;;;;;;;;6151520;23;20014;-45
2022/04/18 01:57:08;;;;;;;0.00;0.00;;;;;;;;;;6151962;23;20005;-49
2022/04/18 01:59:33;;;;;;;0.00;0.00;;;;;;;;;;6152202;23;20006;-49
2022/04/18 02:01:58;;;;;;;0.00;0.00;;;;;;;;;;6151633;23;20011;-49
2022/04/18 02:04:24;;;;;;;0.00;0.00;;;;;;;;;;6151887;23;20328;-47
2022/04/18 02:06:49;;;;;;;0.00;0.00;;;;;;;;;;6151410;23;20415;-48
2022/04/18 02:09:14;;;;;;;0.00;0.00;;;;;;;;;;6151660;23;19998;-50
2022/04/18 02:11:39;;;;;;;0.00;0.00;;;;;;;;;;6150326;23;20005;-49
2022/04/18 02:14:05;;;;;;;3.15;3.03;;;;;;;;;;6125487;23;20006;-50
2022/04/18 02:16:30;;;;;;;0.17;0.17;;;;;;;;;;6151530;23;20416;-48
2022/04/18 02:18:55;;;;;;;0.00;0.00;;;;;;;;;;6151328;23;20063;-47
2022/04/18 02:21:21;;;;;;;0.00;0.00;;;;;;;;;;6152176;23;20002;-50
2022/04/18 02:23:46;;;;;;;0.00;0.00;;;;;;;;;;6150663;23;20002;-48
2022/04/18 02:26:11;;;;;;;0.00;0.00;;;;;;;;;;6151639;23;20077;-48
2022/04/18 02:28:37;;;;;;;0.05;0.05;;;;;;;;;;6150852;23;20394;-49
2022/04/18 02:31:02;;;;;;;0.20;0.20;;;;;;;;;;6151609;23;19998;-50
2022/04/18 02:33:28;;;;;;;0.10;0.10;;;;;;;;;;6151668;23;20008;-49
2022/04/18 02:35:53;;;;;;;0.10;0.10;;;;;;;;;;6150807;23;20002;-49
2022/04/18 02:38:18;;;;;;;0.00;0.00;;;;;;;;;;6151503;23;20001;-50
2022/04/18 02:40:44;;;;;;;0.00;0.00;;;;;;;;;;6150595;23;20016;-48
2022/04/18 02:43:09;;;;;;;0.00;0.00;;;;;;;;;;6151626;23;20088;-50
2022/04/18 02:45:34;;;;;;;0.00;0.00;;;;;;;;;;6151430;23;20424;-52
2022/04/18 02:47:59;;;;;;;0.00;0.00;;;;;;;;;;6150990;23;20028;-51
2022/04/18 02:50:25;;;;;;;0.00;0.00;;;;;;;;;;6151690;23;19998;-47
2022/04/18 02:52:50;;;;;;;0.00;0.00;;;;;;;;;;6150697;23;20011;-48
2022/04/18 02:55:16;;;;;;;0.00;0.00;;;;;;;;;;6125377;23;19998;-49
2022/04/18 02:57:41;;;;;;;0.00;0.00;;;;;;;;;;6151461;23;20515;-46
2022/04/18 03:00:07;;;;;;;0.00;0.00;;;;;;;;;;6151625;23;20400;-49
2022/04/18 03:02:32;;;;;;;0.00;0.00;;;;;;;;;;6151765;23;20002;-48
2022/04/18 03:04:57;;;;;;;0.00;0.00;;;;;;;;;;6151234;23;20060;-49
2022/04/18 03:07:23;;;;;;;0.00;0.00;;;;;;;;;;6151655;23;20304;-48
2022/04/18 03:09:48;;;;;;;0.00;0.00;;;;;;;;;;6151387;23;20001;-49
2022/04/18 03:12:13;;;;;;;0.00;0.00;;;;;;;;;;6151786;23;20028;-49
2022/04/18 03:14:38;;;;;;;0.00;0.00;;;;;;;;;;6151302;23;20202;-49
2022/04/18 03:17:04;;;;;;;0.00;0.00;;;;;;;;;;6151731;23;20076;-48
2022/04/18 03:19:29;;;;;;;0.00;0.00;;;;;;;;;;6125446;23;20364;-47
2022/04/18 03:21:54;;;;;;;0.00;0.00;;;;;;;;;;6151260;23;20619;-49
2022/04/18 03:24:19;;;;;;;0.00;0.00;;;;;;;;;;6151269;23;20005;-51
2022/04/18 03:26:45;;;;;;;0.00;0.00;;;;;;;;;;6150653;23;19998;-51
2022/04/18 03:29:10;;;;;;;0.00;0.00;;;;;;;;;;6151927;23;20466;-49
2022/04/18 03:31:36;;;;;;;0.00;0.00;;;;;;;;;;6151526;23;20084;-46
2022/04/18 03:34:01;;;;;;;0.00;0.00;;;;;;;;;;6151374;23;20040;-49
2022/04/18 03:41:54;;;;;;;0.00;0.00;;;;;;;;;;6151267;23;20037;-50
2022/04/18 03:44:19;;;;;;;0.00;0.00;;;;;;;;;;6151504;23;20013;-50
2022/04/18 03:46:45;;;;;;;0.00;0.00;;;;;;;;;;6151529;23;19998;-52
2022/04/18 03:49:10;;;;;;;0.00;0.00;;;;;;;;;;6153247;23;20301;-48
2022/04/18 03:51:36;;;;;;;0.00;0.00;;;;;;;;;;6153225;23;20478;-47
2022/04/18 03:54:01;;;;;;;0.30;0.30;;;;;;;;;;6152608;23;20423;-49
2022/04/18 03:56:26;;;;;;;0.00;0.00;;;;;;;;;;6153132;23;20005;-49
2022/04/18 03:58:51;;;;;;;0.00;0.00;;;;;;;;;;6151955;23;20012;-49
2022/04/18 04:01:16;;;;;;;0.00;0.00;;;;;;;;;;6153043;23;20012;-49
2022/04/18 04:03:42;;;;;;;0.00;0.00;;;;;;;;;;6152660;23;20005;-49
2022/04/18 04:06:07;;;;;;;0.00;0.00;;;;;;;;;;6126486;23;20005;-49
2022/04/18 04:08:32;;;;;;;0.00;0.00;;;;;;;;;;6152763;23;20012;-45
2022/04/18 04:10:57;;;;;;;0.00;0.00;;;;;;;;;;6152493;23;20021;-46
2022/04/18 04:13:23;;;;;;;0.00;0.00;;;;;;;;;;6153325;23;20073;-47
2022/04/18 04:15:48;;;;;;;0.00;0.00;;;;;;;;;;6152680;23;20021;-50
2022/04/18 04:18:14;;;;;;;0.00;0.00;;;;;;;;;;6153287;23;20007;-49
2022/04/18 04:20:39;;;;;;;0.10;0.10;;;;;;;;;;6153110;23;20036;-50
2022/04/18 04:23:04;;;;;;;0.00;0.00;;;;;;;;;;6152661;23;20040;-49
2022/04/18 04:25:29;;;;;;;0.00;0.00;;;;;;;;;;6126949;23;20435;-48
2022/04/18 04:27:55;;;;;;;0.00;0.00;;;;;;;;;;6152813;23;20018;-48
2022/04/18 04:30:20;;;;;;;0.00;0.00;;;;;;;;;;6152862;23;20009;-53
2022/04/18 04:32:45;;;;;;;0.00;0.00;;;;;;;;;;6152755;23;20036;-48
2022/04/18 04:35:10;;;;;;;0.00;0.00;;;;;;;;;;6152629;23;19997;-51
2022/04/18 04:37:36;;;;;;;0.00;0.00;;;;;;;;;;6153036;23;20454;-48
2022/04/18 04:40:01;;;;;;;0.00;0.00;;;;;;;;;;6152527;23;20001;-49
2022/04/18 04:42:26;;;;;;;0.00;0.00;;;;;;;;;;6153062;23;20005;-49
2022/04/18 04:44:51;;;;;;;0.00;0.00;;;;;;;;;;6152511;23;20004;-51
2022/04/18 04:47:17;;;;;;;0.00;0.00;;;;;;;;;;6126910;23;19997;-48
2022/04/18 04:49:42;;;;;;;0.00;0.00;;;;;;;;;;6152372;23;20073;-45
2022/04/18 04:52:07;;;;;;;0.00;0.00;;;;;;;;;;6153146;23;20416;-46
2022/04/18 04:54:34;;;;;;;0.00;0.00;;;;;;;;;;6152595;23;20388;-46
2022/04/18 04:56:59;;;;;;;1.15;0.55;;;;;;;;;;6152607;23;20006;-48
2022/04/18 04:59:24;;;;;;;0.00;0.00;;;;;;;;;;6152481;23;20364;-49
2022/04/18 05:01:50;;;;;;;0.08;0.08;;;;;;;;;;6151921;23;20379;-47
2022/04/18 05:04:15;;;;;;;0.00;0.00;;;;;;;;;;6152506;23;20001;-49
2022/04/18 05:06:40;;;;;;;0.00;0.00;;;;;;;;;;6152804;23;20484;-49
2022/04/18 05:09:06;;;;;;;0.00;0.00;;;;;;;;;;6151949;23;20128;-49
2022/04/18 05:11:32;;;;;;;0.00;0.00;;;;;;;;;;6152545;23;20005;-49
2022/04/18 05:13:57;;;;;;;0.00;0.00;;;;;;;;;;6151744;23;20005;-48
2022/04/18 05:16:22;;;;;;;0.00;0.00;;;;;;;;;;6152719;23;20001;-51
2022/04/18 05:18:47;;;;;;;0.00;0.00;;;;;;;;;;6152046;23;20763;-51
2022/04/18 05:21:12;;;;;;;0.00;0.00;;;;;;;;;;6152182;23;19997;-46
2022/04/18 05:23:38;;;;;;;0.00;0.00;;;;;;;;;;6151826;23;19998;-50
2022/04/18 05:26:03;;;;;;;0.00;0.00;;;;;;;;;;6151558;23;19998;-50
2022/04/18 05:28:29;;;;;;;0.00;0.00;;;;;;;;;;6152301;23;20023;-53
2022/04/18 05:30:54;;;;;;;0.00;0.00;;;;;;;;;;6151732;23;20068;-52
2022/04/18 05:33:21;;;;;;;0.10;0.10;;;;;;;;;;6151861;23;20013;-48
2022/04/18 05:35:46;;;;;;;0.00;0.00;;;;;;;;;;6151628;23;20411;-48
2022/04/18 05:38:11;;;;;;;0.00;0.00;;;;;;;;;;6152389;23;19997;-53
2022/04/18 05:40:37;;;;;;;0.00;0.00;;;;;;;;;;6151876;23;20001;-47
2022/04/18 05:43:02;;;;;;;0.00;0.00;;;;;;;;;;6151780;23;20039;-46
2022/04/18 05:45:28;;;;;;;0.00;0.00;;;;;;;;;;6152365;23;19998;-52
2022/04/18 05:47:53;;;;;;;0.00;0.00;;;;;;;;;;6151598;23;20001;-48
2022/04/18 05:50:19;;;;;;;0.28;0.28;;;;;;;;;;6151694;23;19998;-48
2022/04/18 05:52:44;;;;;;;0.03;0.03;;;;;;;;;;6151484;23;20025;-45
2022/04/18 05:55:10;;;;;;;0.00;0.00;;;;;;;;;;6151925;23;20384;-45
2022/04/18 05:57:35;;;;;;;0.60;0.60;;;;;;;;;;6150978;23;20016;-51
2022/04/18 06:00:00;;;;;;;0.00;0.00;;;;;;;;;;6150234;23;20004;-49
2022/04/18 06:02:26;;;;;;;0.75;0.75;;;;;;;;;;6151278;23;20029;-50
2022/04/18 06:04:51;;;;;;;0.00;0.00;;;;;;;;;;6151037;23;20093;-48
2022/04/18 06:07:16;;;;;;;0.30;0.20;;;;;;;;;;6151480;23;20001;-49
2022/04/18 06:09:41;;;;;;;0.00;0.00;;;;;;;;;;6151173;23;20315;-51
2022/04/18 06:12:07;;;;;;;0.00;0.00;;;;;;;;;;6150393;23;20783;-50
2022/04/18 06:14:32;;;;;;;0.20;0.13;;;;;;;;;;6151417;23;19993;-48
2022/04/18 06:16:57;;;;;;;0.00;0.00;;;;;;;;;;6150882;23;20000;-49
2022/04/18 06:19:22;;;;;;;0.00;0.00;;;;;;;;;;6151307;23;20001;-52
2022/04/18 06:21:51;;;;;;;0.00;0.00;;;;;;;;;;6150816;23;20023;-48
2022/04/18 06:24:18;;;;;;;0.00;0.00;;;;;;;;;;6150653;23;20001;-49
2022/04/18 06:26:43;;;;;;;0.00;0.00;;;;;;;;;;6151015;23;19998;-48
2022/04/18 06:29:08;;;;;;;0.00;0.00;;;;;;;;;;6150861;23;20690;-51
2022/04/18 06:31:33;;;;;;;0.00;0.00;;;;;;;;;;6150831;23;19994;-51
2022/04/18 06:33:58;;;;;;;0.20;0.20;;;;;;;;;;6150246;23;20013;-51
2022/04/18 06:36:24;;;;;;;0.00;0.00;;;;;;;;;;6151395;23;20068;-48
2022/04/18 06:38:49;;;;;;;0.00;0.00;;;;;;;;;;6150384;23;20009;-51
2022/04/18 06:41:14;;;;;;;0.00;0.00;;;;;;;;;;6151100;23;20002;-50
2022/04/18 06:43:39;;;;;;;0.00;0.00;;;;;;;;;;6150971;23;20017;-48
2022/04/18 06:46:05;;;;;;;0.00;0.00;;;;;;;;;;6150681;23;20005;-50
2022/04/18 06:48:30;;;;;;;0.00;0.00;;;;;;;;;;6150802;23;20443;-51
2022/04/18 06:50:56;;;;;;;0.00;0.00;;;;;;;;;;6151309;23;20005;-53
2022/04/18 06:53:21;;;;;;;0.00;0.00;;;;;;;;;;6150925;23;20475;-52
2022/04/18 06:58:31;;;;;;;0.00;0.00;;;;;;;;;;6150698;23;20016;-53
2022/04/18 07:00:56;;;;;;;0.00;0.00;;;;;;;;;;6149834;23;20833;-51
2022/04/18 07:03:21;;;;;;;0.00;0.00;;;;;;;;;;6151101;23;20081;-51
2022/04/18 07:05:47;;;;;;;0.00;0.00;;;;;;;;;;6151228;23;19998;-48
2022/04/18 07:08:12;;;;;;;0.00;0.00;;;;;;;;;;6150447;23;20059;-50
2022/04/18 07:10:38;;;;;;;0.40;0.40;;;;;;;;;;6150506;23;19993;-50
2022/04/18 07:13:03;;;;;;;0.20;0.20;;;;;;;;;;6149842;23;20002;-54
2022/04/18 07:15:28;;;;;;;0.00;0.00;;;;;;;;;;6151055;23;20005;-49
2022/04/18 07:17:53;;;;;;;0.00;0.00;;;;;;;;;;6150202;23;19998;-48
2022/04/18 07:20:18;;;;;;;13.77;12.50;;;;;;;;;;6150900;23;20002;-53
2022/04/18 07:22:44;;;;;;;9.65;0.98;;;;;;;;;;6151490;23;20249;-51
2022/04/18 07:25:09;;;;;;;0.00;0.00;;;;;;;;;;6151749;23;20005;-51
2022/04/18 07:27:35;;;;;;;0.00;0.00;;;;;;;;;;6151973;23;20091;-53
2022/04/18 07:30:00;;;;;;;0.00;0.00;;;;;;;;;;6151897;23;20001;-51
2022/04/18 07:32:25;;;;;;;1.27;1.17;;;;;;;;;;6152749;23;20024;-53
2022/04/18 07:34:50;;;;;;;0.43;0.43;;;;;;;;;;6151970;23;20331;-51
2022/04/18 07:37:15;;;;;;;0.00;0.00;;;;;;;;;;6152426;23;19997;-49
2022/04/18 07:39:41;;;;;;;0.00;0.00;;;;;;;;;;6151886;23;20008;-50
2022/04/18 07:42:06;;;;;;;0.10;0.10;;;;;;;;;;6151684;23;19997;-50
2022/04/18 07:44:31;;;;;;;0.30;0.15;;;;;;;;;;6152482;23;20025;-52
2022/04/18 07:46:58;;;;;;;1.55;1.45;;;;;;;;;;6151782;23;20049;-51
2022/04/18 07:49:23;;;;;;;0.00;0.00;;;;;;;;;;6152249;23;19993;-51
2022/04/18 07:51:48;;;;;;;0.10;0.10;;;;;;;;;;6152076;23;20072;-51
2022/04/18 07:54:17;;;;;;;0.00;0.00;;;;;;;;;;6152357;23;20001;-53
2022/04/18 07:56:43;;;;;;;0.00;0.00;;;;;;;;;;6151461;23;20001;-64
2022/04/18 07:59:09;;;;;;;0.00;0.00;;;;;;;;;;6151668;23;20455;-63
2022/04/18 08:01:34;;;;;;;0.00;0.00;;;;;;;;;;6151898;23;20016;-63
2022/04/18 08:04:00;;;;;;;0.00;0.00;;;;;;;;;;6151127;23;20005;-63
2022/04/18 08:06:25;;;;;;;0.00;0.00;;;;;;;;;;6152067;23;20428;-64
2022/04/18 08:08:51;;;;;;;0.00;0.00;;;;;;;;;;6151055;23;20091;-64
2022/04/18 08:11:16;;;;;;;0.00;0.00;;;;;;;;;;6151907;23;20331;-64
2022/04/18 08:13:42;;;;;;;0.00;0.00;;;;;;;;;;6151740;23;20004;-62
2022/04/18 08:16:07;;;;;;;0.00;0.00;;;;;;;;;;6149302;23;20104;-63
2022/04/18 08:18:36;;;;;;;0.00;0.00;;;;;;;;;;6152034;23;20009;-63
2022/04/18 08:21:02;;;;;;;0.00;0.00;;;;;;;;;;6151475;23;20426;-63
2022/04/18 08:23:27;;;;;;;0.00;0.00;;;;;;;;;;6151454;23;19997;-63
2022/04/18 08:25:52;;;;;;;0.00;0.00;;;;;;;;;;6150722;23;20005;-63
2022/04/18 08:28:17;;;;;;;0.00;0.00;;;;;;;;;;6151814;23;20010;-62
2022/04/18 08:30:42;;;;;;;0.00;0.00;;;;;;;;;;6152250;23;20047;-63
2022/04/18 08:33:08;;;;;;;0.32;0.32;;;;;;;;;;6151563;23;20667;-63
2022/04/18 08:35:33;;;;;;;0.00;0.00;;;;;;;;;;6126184;23;20438;-63
2022/04/18 08:38:01;;;;;;;0.00;0.00;;;;;;;;;;6151802;23;20005;-64
2022/04/18 08:40:27;;;;;;;0.10;0.10;;;;;;;;;;6151030;23;20001;-63
2022/04/18 08:42:58;;;;;;;0.00;0.00;;;;;;;;;;6151564;23;20570;-63
2022/04/18 08:45:24;;;;;;;0.00;0.00;;;;;;;;;;6151973;23;20477;-64
2022/04/18 08:53:19;;;;;;;0.00;0.00;;;;;;;;;;6151236;23;20008;-64
2022/04/18 08:55:44;;;;;;;0.00;0.00;;;;;;;;;;6151466;23;20033;-64
2022/04/18 08:58:11;;;;;;;0.00;0.00;;;;;;;;;;6151329;23;20010;-63
2022/04/18 09:00:37;;;;;;;0.20;0.20;;;;;;;;;;6151417;23;20004;-63
2022/04/18 09:03:03;;;;;;;0.30;0.30;;;;;;;;;;6151000;23;20080;-63
2022/04/18 09:05:34;;;;;;;0.00;0.00;;;;;;;;;;6152105;23;20315;-63
2022/04/18 09:08:00;;;;;;;0.52;0.45;;;;;;;;;;6151822;23;20427;-63
2022/04/18 09:10:26;;;;;;;0.00;0.00;;;;;;;;;;6151477;23;20423;-63
2022/04/18 09:12:51;;;;;;;0.57;0.15;;;;;;;;;;6151196;23;20036;-62
2022/04/18 09:15:30;;;;;;;1.65;0.65;;;;;;;;;;6152032;23;20001;-62
2022/04/18 09:18:05;;;;;;;0.00;0.00;;;;;;;;;;6151097;23;20435;-62
2022/04/18 09:20:39;;;;;;;0.00;0.00;;;;;;;;;;6151735;23;20009;-63
2022/04/18 09:23:04;;;;;;;0.00;0.00;;;;;;;;;;6150654;23;20033;-63
2022/04/18 09:25:36;;;;;;;0.00;0.00;;;;;;;;;;6151284;23;20004;-64
2022/04/18 09:28:01;;;;;;;0.00;0.00;;;;;;;;;;6151240;23;20020;-63
2022/04/18 09:30:33;;;;;;;0.00;0.00;;;;;;;;;;6151580;23;20269;-62
2022/04/18 09:33:08;;;;;;;1.00;1.00;;;;;;;;;;6150987;23;20084;-63
2022/04/18 09:35:34;;;;;;;0.20;0.17;;;;;;;;;;6151862;23;20077;-62
2022/04/18 09:38:00;;;;;;;0.10;0.10;;;;;;;;;;6151309;23;20057;-62
2022/04/18 09:40:26;;;;;;;0.20;0.20;;;;;;;;;;6151273;23;20044;-62
2022/04/18 09:42:55;;;;;;;0.68;0.65;;;;;;;;;;6150871;23;20002;-62
2022/04/18 09:45:20;;;;;;;3.42;1.38;;;;;;;;;;6151255;23;20005;-62
2022/04/18 09:47:52;;;;;;;3.70;0.82;;;;;;;;;;6151482;23;19998;-62
2022/04/18 09:53:06;;;;;;;0.85;0.45;;;;;;;;;;6149964;23;20457;-63
2022/04/18 09:55:31;;;;;;;0.00;0.00;;;;;;;;;;6150939;23;20037;-62
2022/04/18 09:58:02;;;;;;;1.95;0.65;;;;;;;;;;6150938;23;20032;-62
2022/04/18 10:00:28;;;;;;;1.17;1.17;;;;;;;;;;6151445;23;20437;-64
2022/04/18 10:02:53;;;;;;;0.00;0.00;;;;;;;;;;6151037;23;19998;-63
2022/04/18 10:05:19;;;;;;;1.65;1.38;;;;;;;;;;6151239;23;19994;-64
2022/04/18 10:07:45;;;;;;;0.00;0.00;;;;;;;;;;6151341;23;20431;-63
2022/04/18 10:10:12;;;;;;;0.00;0.00;;;;;;;;;;6150428;23;20016;-63
2022/04/18 10:12:37;;;;;;;0.90;0.88;;;;;;;;;;6151317;23;20001;-63
2022/04/18 10:15:03;;;;;;;1.10;1.10;;;;;;;;;;6150524;23;20033;-62
2022/04/18 10:17:29;;;;;;;0.45;0.45;;;;;;;;;;6150570;23;20013;-61
2022/04/18 10:20:03;;;;;;;0.00;0.00;;;;;;;;;;6150737;23;20001;-60
2022/04/18 10:22:34;;;;;;;0.00;0.00;;;;;;;;;;6151734;23;20013;-61
2022/04/18 10:25:02;;;;;;;0.00;0.00;;;;;;;;;;6150117;23;20005;-61
2022/04/18 10:27:46;;;;;;;0.00;0.00;;;;;;;;;;6150483;23;20078;-61
2022/04/18 10:30:13;;;;;;;0.00;0.00;;;;;;;;;;6150480;23;20000;-61
2022/04/18 10:32:40;;;;;;;0.00;0.00;;;;;;;;;;6151236;23;20021;-61
2022/04/18 10:35:05;;;;;;;0.70;0.70;;;;;;;;;;6151156;23;20037;-61
2022/04/18 10:37:31;;;;;;;0.13;0.13;;;;;;;;;;6150798;23;20001;-62
2022/04/18 10:40:03;;;;;;;0.45;0.45;;;;;;;;;;6148173;23;20029;-61
2022/04/18 10:42:29;;;;;;;0.00;0.00;;;;;;;;;;6150886;23;20021;-62
2022/04/18 10:44:58;;;;;;;0.00;0.00;;;;;;;;;;6150467;23;19997;-60
2022/04/18 10:47:23;;;;;;;;;;;;;;;;;;6151217;23;19994;-61
2022/04/18 10:50:08;;;;;;;0.00;0.00;;;;;;;;;;6150831;23;19934;-62
2022/04/18 10:52:34;;;;;;;0.00;0.00;;;;;;;;;;6150537;23;20226;-61
2022/04/18 10:54:59;;;;;;;0.00;0.00;;;;;;;;;;6150161;23;20028;-61
2022/04/18 10:57:26;;;;;;;0.20;0.20;;;;;;;;;;6152850;23;20410;-61
2022/04/18 10:59:51;;;;;;;0.00;0.00;;;;;;;;;;6153152;23;20000;-62
2022/04/18 11:02:35;;;;;;;0.00;0.00;;;;;;;;;;6152558;23;20020;-60
2022/04/18 11:05:01;;;;;;;0.00;0.00;;;;;;;;;;6152645;23;20217;-62
2022/04/18 11:07:39;;;;;;;0.00;0.00;;;;;;;;;;6152130;23;19994;-61
2022/04/18 11:10:25;;;;;;;0.00;0.00;;;;;;;;;;6152377;23;20280;-62
2022/04/18 11:12:50;;;;;;;0.28;0.28;;;;;;;;;;6152810;23;20012;-64
2022/04/18 11:15:17;;;;;;;0.10;0.10;;;;;;;;;;6152421;23;20010;-63
2022/04/18 11:17:42;;;;;;;3.33;3.20;;;;;;;;;;6152801;23;20036;-62
2022/04/18 11:20:29;;;;;;;0.10;0.10;;;;;;;;;;6151645;23;20005;-63
2022/04/18 11:23:13;;;;;;;0.00;0.00;;;;;;;;;;6152482;23;20040;-61
2022/04/18 11:25:54;;;;;;;0.00;0.00;;;;;;;;;;6152839;23;20092;-61
2022/04/18 11:28:19;;;;;;;0.00;0.00;;;;;;;;;;6152091;23;20016;-61
2022/04/18 11:30:44;;;;;;;0.00;0.00;;;;;;;;;;6152870;23;19997;-61
2022/04/18 11:33:10;;;;;;;0.00;0.00;;;;;;;;;;6152296;23;20016;-61
2022/04/18 11:35:35;;;;;;;1.55;1.55;;;;;;;;;;6152725;23;20036;-62
2022/04/18 11:38:07;;;;;;;0.00;0.00;;;;;;;;;;6152268;23;20044;-60
2022/04/18 11:40:36;;;;;;;0.20;0.20;;;;;;;;;;6152672;23;20363;-61
2022/04/18 11:43:08;;;;;;;0.20;0.20;;;;;;;;;;6152117;23;20091;-62
2022/04/18 11:45:34;;;;;;;0.00;0.00;;;;;;;;;;6152065;23;19993;-64
2022/04/18 11:48:01;;;;;;;0.00;0.00;;;;;;;;;;6151012;23;20530;-62
2022/04/18 11:50:26;;;;;;;0.00;0.00;;;;;;;;;;6152030;23;20356;-60
2022/04/18 11:53:02;;;;;;;0.00;0.00;;;;;;;;;;6151676;23;20013;-60
2022/04/18 11:55:27;;;;;;;0.00;0.00;;;;;;;;;;6150910;23;19998;-60
2022/04/18 11:57:52;;;;;;;1.88;0.60;;;;;;;;;;6152624;23;20016;-60
2022/04/18 12:08:33;;;;;;;0.08;0.00;;;;;;;;;;6152772;23;20056;-67
2022/04/18 12:10:58;;;;;;;0.00;0.00;;;;;;;;;;6152452;23;20033;-67
2022/04/18 12:13:23;;;;;;;0.10;0.10;;;;;;;;;;6153377;23;20055;-66
2022/04/18 12:15:49;;;;;;;0.00;0.00;;;;;;;;;;6153180;23;20009;-66
2022/04/18 12:18:15;;;;;;;0.00;0.00;;;;;;;;;;6152911;23;20004;-66
2022/04/18 12:20:42;;;;;;;0.40;0.40;;;;;;;;;;6153286;23;20015;-67
2022/04/18 12:23:08;;;;;;;0.00;0.00;;;;;;;;;;6152072;23;20017;-66
2022/04/18 12:25:34;;;;;;;0.45;0.45;;;;;;;;;;6151874;23;19997;-66
2022/04/18 12:28:00;;;;;;;0.00;0.00;;;;;;;;;;6151478;23;20432;-66
2022/04/18 12:30:26;;;;;;;0.00;0.00;;;;;;;;;;6152025;23;20312;-66
2022/04/18 12:32:54;;;;;;;0.00;0.00;;;;;;;;;;6152494;23;20423;-66
2022/04/18 12:35:38;;;;;;;0.00;0.00;;;;;;;;;;6127288;23;20010;-67
2022/04/18 12:38:04;;;;;;;0.00;0.00;;;;;;;;;;6152298;23;20005;-70
2022/04/18 12:40:39;;;;;;;0.00;0.00;;;;;;;;;;6152045;23;20085;-67
2022/04/18 12:43:15;;;;;;;0.00;0.00;;;;;;;;;;6152047;23;20005;-69
2022/04/18 12:45:47;;;;;;;0.00;0.00;;;;;;;;;;6151993;23;20016;-69
2022/04/18 12:48:13;;;;;;;0.00;0.00;;;;;;;;;;6151761;23;20072;-68
2022/04/18 12:50:39;;;;;;;0.20;0.20;;;;;;;;;;6152501;23;20028;-69
2022/04/18 12:53:04;;;;;;;0.00;0.00;;;;;;;;;;6151703;23;20325;-68
2022/04/18 12:55:30;;;;;;;0.00;0.00;;;;;;;;;;6152170;23;20526;-68
2022/04/18 12:57:56;;;;;;;0.00;0.00;;;;;;;;;;6151775;23;20009;-68
2022/04/18 13:00:21;;;;;;;0.30;0.30;;;;;;;;;;6152285;23;20339;-68
2022/04/18 13:03:06;;;;;;;0.90;0.80;;;;;;;;;;6152126;23;20002;-69
2022/04/18 13:05:32;;;;;;;1.08;1.08;;;;;;;;;;6151999;23;20004;-69
2022/04/18 13:08:01;;;;;;;0.00;0.00;;;;;;;;;;6151697;23;19998;-69
2022/04/18 13:10:27;;;;;;;0.00;0.00;;;;;;;;;;6151674;23;20517;-68
2022/04/18 13:13:01;;;;;;;0.00;0.00;;;;;;;;;;6151839;23;20008;-68
2022/04/18 13:15:27;;;;;;;1.35;0.75;;;;;;;;;;6151269;23;20424;-70
2022/04/18 13:17:59;;;;;;;0.38;0.30;;;;;;;;;;6151705;23;20005;-68
2022/04/18 13:20:25;;;;;;;0.52;0.52;;;;;;;;;;6151694;23;20008;-70
2022/04/18 13:22:50;;;;;;;0.28;0.28;;;;;;;;;;6151896;23;20009;-69
2022/04/18 13:25:16;;;;;;;0.00;0.00;;;;;;;;;;6151207;23;20416;-68
2022/04/18 13:27:41;;;;;;;0.20;0.20;;;;;;;;;;6151477;23;20013;-69
2022/04/18 13:30:07;;;;;;;0.00;0.00;;;;;;;;;;6151577;23;20001;-72
2022/04/18 13:32:32;;;;;;;0.00;0.00;;;;;;;;;;6150702;23;20000;-70
2022/04/18 13:34:58;;;;;;;0.00;0.00;;;;;;;;;;6151985;23;20416;-70
2022/04/18 13:37:23;;;;;;;0.20;0.20;;;;;;;;;;6150979;23;19994;-70
2022/04/18 13:39:48;;;;;;;0.00;0.00;;;;;;;;;;6151608;23;20004;-70
2022/04/18 13:42:14;;;;;;;0.10;0.10;;;;;;;;;;6124475;23;20029;-69
2022/04/18 13:44:39;;;;;;;1.23;1.23;;;;;;;;;;6151603;23;20637;-67
2022/04/18 13:47:04;;;;;;;0.00;0.00;;;;;;;;;;6151445;23;20028;-67
2022/04/18 13:49:30;;;;;;;0.00;0.00;;;;;;;;;;6151260;23;20419;-67
2022/04/18 13:52:01;;;;;;;0.00;0.00;;;;;;;;;;5137776;27;20375;-67
2022/04/18 13:54:26;;;;;;;0.00;0.00;;;;;;;;;;5104202;28;20027;-67
2022/04/18 13:56:51;;;;;;;0.45;0.45;;;;;;;;;;5105701;28;20069;-67
2022/04/18 13:59:16;;;;;;;0.00;0.00;;;;;;;;;;5104191;28;20028;-67
2022/04/18 14:01:43;;;;;;;0.05;0.05;;;;;;;;;;5104572;28;20022;-70
2022/04/18 14:04:08;;;;;;;0.10;0.10;;;;;;;;;;5102986;28;20423;-62
2022/04/18 14:06:33;;;;;;;0.52;0.47;;;;;;;;;;5104854;28;20028;-66
2022/04/18 14:08:59;;;;;;;0.00;0.00;;;;;;;;;;5103684;28;20051;-67
2022/04/18 14:11:24;;;;;;;0.00;0.00;;;;;;;;;;5102297;28;20020;-66
2022/04/18 14:13:49;;;;;;;0.00;0.00;;;;;;;;;;5103550;28;20073;-74
2022/04/18 14:21:45;;;;;;;0.00;0.00;;;;;;;;;;5103529;28;20472;-69
2022/04/18 14:24:10;;;;;;;0.43;0.43;;;;;;;;;;5103934;28;20024;-70
2022/04/18 14:26:35;;;;;;;0.20;0.20;;;;;;;;;;5102966;28;20028;-68
2022/04/18 14:29:01;;;;;;;1.02;0.38;;;;;;;;;;5103619;28;20049;-68
2022/04/18 14:31:26;;;;;;;0.30;0.25;;;;;;;;;;5102810;28;20657;-68
2022/04/18 14:33:52;;;;;;;2.45;1.33;;;;;;;;;;5103836;28;20016;-68
2022/04/18 14:36:20;;;;;;;0.00;0.00;;;;;;;;;;5102713;28;20024;-68
2022/04/18 14:38:45;;;;;;;2.05;0.10;;;;;;;;;;5104844;28;20439;-68
2022/04/18 14:41:10;;;;;;;0.00;0.00;;;;;;;;;;5102681;28;20119;-67
2022/04/18 14:43:36;;;;;;;0.22;0.22;;;;;;;;;;5105037;28;20034;-68
2022/04/18 14:46:01;;;;;;;0.00;0.00;;;;;;;;;;5102778;28;20031;-69
2022/04/18 14:48:26;;;;;;;0.40;0.10;;;;;;;;;;5104265;28;20073;-67
2022/04/18 14:50:51;;;;;;;0.00;0.00;;;;;;;;;;5102232;28;20051;-68
2022/04/18 14:53:17;;;;;;;0.00;0.00;;;;;;;;;;5103504;28;20487;-68
2022/04/18 14:55:43;;;;;;;0.10;0.10;;;;;;;;;;5102382;28;20472;-69
2022/04/18 14:58:08;;;;;;;0.03;0.03;;;;;;;;;;5102905;28;20028;-68
2022/04/18 15:00:34;;;;;;;0.00;0.00;;;;;;;;;;5101720;28;20437;-68
2022/04/18 15:02:59;;;;;;;0.00;0.00;;;;;;;;;;5092688;28;20024;-69
2022/04/18 15:05:25;;;;;;;0.00;0.00;;;;;;;;;;5089202;28;20465;-69
2022/04/18 15:07:50;;;;;;;0.00;0.00;;;;;;;;;;5090407;28;20034;-68
2022/04/18 15:10:16;;;;;;;0.00;0.00;;;;;;;;;;5088322;28;20073;-68
2022/04/18 15:12:42;;;;;;;0.00;0.00;;;;;;;;;;5089102;28;20020;-68
2022/04/18 15:15:07;;;;;;;0.00;0.00;;;;;;;;;;5088667;28;20085;-68